sensor_id;sensor_type;location;lat;lon;timestamp;temperature;humidity
8715;DHT22;4394;51.208;8.904;2023-02-18T00:02:48;10.40;99.90
8715;DHT22;4394;51.208;8.904;2023-02-18T00:05:38;10.40;99.90
8715;DHT22;4394;51.208;8.904;2023-02-18T00:08:26;10.40;99.90
8715;DHT22;4394;51.208;8.904;2023-02-18T00:11:14;10.50;99.90
8715;DHT22;4394;51.208;8.904;2023-02-18T00:14:04;10.40;99.90
8715;DHT22;4394;51.208;8.904;2023-02-18T00:16:53;10.40;99.90
8715;DHT22;4394;51.208;8.904;2023-02-18T00:19:42;10.40;99.90
8715;DHT22;4394;51.208;8.904;2023-02-18T00:22:30;10.40;99.90
8715;DHT22;4394;51.208;8.904;2023-02-18T00:25:18;10.40;99.90
8715;DHT22;4394;51.208;8.904;2023-02-18T00:28:06;10.40;99.90
8715;DHT22;4394;51.208;8.904;2023-02-18T00:30:54;10.40;99.90
8715;DHT22;4394;51.208;8.904;2023-02-18T00:33:43;10.40;99.90
8715;DHT22;4394;51.208;8.904;2023-02-18T00:36:32;10.30;99.90
8715;DHT22;4394;51.208;8.904;2023-02-18T00:39:20;10.30;99.90
8715;DHT22;4394;51.208;8.904;2023-02-18T00:42:08;10.30;99.90
8715;DHT22;4394;51.208;8.904;2023-02-18T00:44:56;10.30;99.90
8715;DHT22;4394;51.208;8.904;2023-02-18T00:47:44;10.30;99.90
8715;DHT22;4394;51.208;8.904;2023-02-18T00:50:31;10.20;99.90
8715;DHT22;4394;51.208;8.904;2023-02-18T00:53:21;10.20;99.90
8715;DHT22;4394;51.208;8.904;2023-02-18T00:56:09;10.20;99.90
8715;DHT22;4394;51.208;8.904;2023-02-18T00:58:57;10.10;99.90
8715;DHT22;4394;51.208;8.904;2023-02-18T01:01:45;10.10;99.90
8715;DHT22;4394;51.208;8.904;2023-02-18T01:04:33;10.10;99.90
8715;DHT22;4394;51.208;8.904;2023-02-18T01:07:21;10.10;99.90
8715;DHT22;4394;51.208;8.904;2023-02-18T01:10:10;10.10;99.90
8715;DHT22;4394;51.208;8.904;2023-02-18T01:12:58;10.10;99.90
8715;DHT22;4394;51.208;8.904;2023-02-18T01:15:46;10.10;99.90
8715;DHT22;4394;51.208;8.904;2023-02-18T01:18:35;10.10;99.90
8715;DHT22;4394;51.208;8.904;2023-02-18T01:21:23;10.10;99.90
8715;DHT22;4394;51.208;8.904;2023-02-18T01:24:11;10.10;99.90
8715;DHT22;4394;51.208;8.904;2023-02-18T01:27:00;10.10;99.90
8715;DHT22;4394;51.208;8.904;2023-02-18T01:29:48;10.10;99.90
8715;DHT22;4394;51.208;8.904;2023-02-18T01:32:35;10.10;99.90
8715;DHT22;4394;51.208;8.904;2023-02-18T01:35:24;10.20;99.90
8715;DHT22;4394;51.208;8.904;2023-02-18T01:38:12;10.20;99.90
8715;DHT22;4394;51.208;8.904;2023-02-18T01:41:00;10.10;99.90
8715;DHT22;4394;51.208;8.904;2023-02-18T01:44:17;10.10;99.90
8715;DHT22;4394;51.208;8.904;2023-02-18T01:47:04;10.10;99.90
8715;DHT22;4394;51.208;8.904;2023-02-18T01:49:53;10.10;99.90
8715;DHT22;4394;51.208;8.904;2023-02-18T01:52:40;10.10;99.90
8715;DHT22;4394;51.208;8.904;2023-02-18T01:55:28;10.10;99.90
8715;DHT22;4394;51.208;8.904;2023-02-18T01:58:17;10.10;99.90
8715;DHT22;4394;51.208;8.904;2023-02-18T02:01:06;10.10;99.90
8715;DHT22;4394;51.208;8.904;2023-02-18T02:03:56;10.10;99.90
8715;DHT22;4394;51.208;8.904;2023-02-18T02:06:43;10.10;99.90
8715;DHT22;4394;51.208;8.904;2023-02-18T02:09:33;10.10;99.90
8715;DHT22;4394;51.208;8.904;2023-02-18T02:12:35;10.10;99.90
8715;DHT22;4394;51.208;8.904;2023-02-18T02:15:33;10.10;99.90
8715;DHT22;4394;51.208;8.904;2023-02-18T02:18:34;10.10;99.90
8715;DHT22;4394;51.208;8.904;2023-02-18T02:21:55;10.20;99.90
8715;DHT22;4394;51.208;8.904;2023-02-18T02:25:03;10.20;99.90
8715;DHT22;4394;51.208;8.904;2023-02-18T02:31:45;10.30;99.90
8715;DHT22;4394;51.208;8.904;2023-02-18T02:34:50;10.30;99.90
8715;DHT22;4394;51.208;8.904;2023-02-18T02:37:43;10.30;99.90
8715;DHT22;4394;51.208;8.904;2023-02-18T02:40:38;10.20;99.90
8715;DHT22;4394;51.208;8.904;2023-02-18T02:43:34;10.20;99.90
8715;DHT22;4394;51.208;8.904;2023-02-18T02:46:27;10.20;99.90
8715;DHT22;4394;51.208;8.904;2023-02-18T02:49:31;10.20;99.90
8715;DHT22;4394;51.208;8.904;2023-02-18T02:52:25;10.20;99.90
8715;DHT22;4394;51.208;8.904;2023-02-18T02:55:15;10.30;99.90
8715;DHT22;4394;51.208;8.904;2023-02-18T02:58:03;10.30;99.90
8715;DHT22;4394;51.208;8.904;2023-02-18T03:01:19;10.30;99.90
8715;DHT22;4394;51.208;8.904;2023-02-18T03:04:19;10.30;99.90
8715;DHT22;4394;51.208;8.904;2023-02-18T03:07:48;10.30;99.90
8715;DHT22;4394;51.208;8.904;2023-02-18T03:10:46;10.30;99.90
8715;DHT22;4394;51.208;8.904;2023-02-18T03:13:55;10.20;99.90
8715;DHT22;4394;51.208;8.904;2023-02-18T03:16:47;10.20;99.90
8715;DHT22;4394;51.208;8.904;2023-02-18T03:19:38;10.10;99.90
8715;DHT22;4394;51.208;8.904;2023-02-18T03:22:30;10.10;99.90
8715;DHT22;4394;51.208;8.904;2023-02-18T03:25:20;10.20;99.90
8715;DHT22;4394;51.208;8.904;2023-02-18T03:28:13;10.20;99.90
8715;DHT22;4394;51.208;8.904;2023-02-18T03:31:06;10.20;99.90
8715;DHT22;4394;51.208;8.904;2023-02-18T03:34:00;10.20;99.90
8715;DHT22;4394;51.208;8.904;2023-02-18T03:36:49;10.20;99.90
8715;DHT22;4394;51.208;8.904;2023-02-18T03:39:40;10.20;99.90
8715;DHT22;4394;51.208;8.904;2023-02-18T03:42:30;10.20;99.90
8715;DHT22;4394;51.208;8.904;2023-02-18T03:45:18;10.20;99.90
8715;DHT22;4394;51.208;8.904;2023-02-18T03:48:06;10.20;99.90
8715;DHT22;4394;51.208;8.904;2023-02-18T03:50:54;10.30;99.90
8715;DHT22;4394;51.208;8.904;2023-02-18T03:53:42;10.30;99.90
8715;DHT22;4394;51.208;8.904;2023-02-18T03:56:30;10.30;99.90
8715;DHT22;4394;51.208;8.904;2023-02-18T03:59:19;10.30;99.90
8715;DHT22;4394;51.208;8.904;2023-02-18T04:02:09;10.30;99.90
8715;DHT22;4394;51.208;8.904;2023-02-18T04:04:57;10.20;99.90
8715;DHT22;4394;51.208;8.904;2023-02-18T04:07:45;10.20;99.90
8715;DHT22;4394;51.208;8.904;2023-02-18T04:10:33;10.20;99.90
8715;DHT22;4394;51.208;8.904;2023-02-18T04:13:21;10.20;99.90
8715;DHT22;4394;51.208;8.904;2023-02-18T04:16:10;10.20;99.90
8715;DHT22;4394;51.208;8.904;2023-02-18T04:18:58;10.20;99.90
8715;DHT22;4394;51.208;8.904;2023-02-18T04:21:46;10.20;99.90
8715;DHT22;4394;51.208;8.904;2023-02-18T04:24:33;10.20;99.90
8715;DHT22;4394;51.208;8.904;2023-02-18T04:27:21;10.20;99.90
8715;DHT22;4394;51.208;8.904;2023-02-18T04:30:10;10.20;99.90
8715;DHT22;4394;51.208;8.904;2023-02-18T04:32:59;10.10;99.90
8715;DHT22;4394;51.208;8.904;2023-02-18T04:35:49;10.10;99.90
8715;DHT22;4394;51.208;8.904;2023-02-18T04:38:37;10.10;99.90
8715;DHT22;4394;51.208;8.904;2023-02-18T04:41:25;10.20;99.90
8715;DHT22;4394;51.208;8.904;2023-02-18T04:44:13;10.20;99.90
8715;DHT22;4394;51.208;8.904;2023-02-18T04:47:01;10.10;99.90
8715;DHT22;4394;51.208;8.904;2023-02-18T04:49:50;10.10;99.90
8715;DHT22;4394;51.208;8.904;2023-02-18T04:52:38;10.10;99.90
8715;DHT22;4394;51.208;8.904;2023-02-18T04:55:25;10.10;99.90
8715;DHT22;4394;51.208;8.904;2023-02-18T04:58:13;10.10;99.90
8715;DHT22;4394;51.208;8.904;2023-02-18T05:01:03;10.10;99.90
8715;DHT22;4394;51.208;8.904;2023-02-18T05:03:51;10.20;99.90
8715;DHT22;4394;51.208;8.904;2023-02-18T05:06:40;10.20;99.90
8715;DHT22;4394;51.208;8.904;2023-02-18T05:09:28;10.20;99.90
8715;DHT22;4394;51.208;8.904;2023-02-18T05:12:16;10.20;99.90
8715;DHT22;4394;51.208;8.904;2023-02-18T05:15:05;10.20;99.90
8715;DHT22;4394;51.208;8.904;2023-02-18T05:17:53;10.20;99.90
8715;DHT22;4394;51.208;8.904;2023-02-18T05:20:41;10.20;99.90
8715;DHT22;4394;51.208;8.904;2023-02-18T05:23:31;10.20;99.90
8715;DHT22;4394;51.208;8.904;2023-02-18T05:26:19;10.20;99.90
8715;DHT22;4394;51.208;8.904;2023-02-18T05:29:07;10.30;99.90
8715;DHT22;4394;51.208;8.904;2023-02-18T05:31:55;10.30;99.90
8715;DHT22;4394;51.208;8.904;2023-02-18T05:34:43;10.30;99.90
8715;DHT22;4394;51.208;8.904;2023-02-18T05:37:30;10.20;99.90
8715;DHT22;4394;51.208;8.904;2023-02-18T05:40:20;10.20;99.90
8715;DHT22;4394;51.208;8.904;2023-02-18T05:43:08;10.30;99.90
8715;DHT22;4394;51.208;8.904;2023-02-18T05:45:55;10.30;99.90
8715;DHT22;4394;51.208;8.904;2023-02-18T05:48:46;10.20;99.90
8715;DHT22;4394;51.208;8.904;2023-02-18T05:51:34;10.20;99.90
8715;DHT22;4394;51.208;8.904;2023-02-18T05:54:22;10.20;99.90
8715;DHT22;4394;51.208;8.904;2023-02-18T05:57:12;10.20;99.90
8715;DHT22;4394;51.208;8.904;2023-02-18T06:00:00;10.20;99.90
8715;DHT22;4394;51.208;8.904;2023-02-18T06:02:48;10.20;99.90
8715;DHT22;4394;51.208;8.904;2023-02-18T06:05:36;10.20;99.90
8715;DHT22;4394;51.208;8.904;2023-02-18T06:08:24;10.10;99.90
8715;DHT22;4394;51.208;8.904;2023-02-18T06:11:12;10.20;99.90
8715;DHT22;4394;51.208;8.904;2023-02-18T06:14:04;10.20;99.90
8715;DHT22;4394;51.208;8.904;2023-02-18T06:16:52;10.20;99.90
8715;DHT22;4394;51.208;8.904;2023-02-18T06:19:40;10.20;99.90
8715;DHT22;4394;51.208;8.904;2023-02-18T06:22:28;10.20;99.90
8715;DHT22;4394;51.208;8.904;2023-02-18T06:25:16;10.20;99.90
8715;DHT22;4394;51.208;8.904;2023-02-18T06:28:04;10.20;99.90
8715;DHT22;4394;51.208;8.904;2023-02-18T06:30:54;10.20;99.90
8715;DHT22;4394;51.208;8.904;2023-02-18T06:33:41;10.20;99.90
8715;DHT22;4394;51.208;8.904;2023-02-18T06:36:30;10.20;99.90
8715;DHT22;4394;51.208;8.904;2023-02-18T06:39:22;10.20;99.90
8715;DHT22;4394;51.208;8.904;2023-02-18T06:42:10;10.00;99.90
8715;DHT22;4394;51.208;8.904;2023-02-18T06:44:58;10.10;99.90
8715;DHT22;4394;51.208;8.904;2023-02-18T06:47:47;10.10;99.90
8715;DHT22;4394;51.208;8.904;2023-02-18T06:50:35;10.00;99.90
8715;DHT22;4394;51.208;8.904;2023-02-18T06:53:23;10.10;99.90
8715;DHT22;4394;51.208;8.904;2023-02-18T06:56:11;10.10;99.90
8715;DHT22;4394;51.208;8.904;2023-02-18T06:58:56;10.10;99.90
8715;DHT22;4394;51.208;8.904;2023-02-18T07:01:45;10.10;99.90
8715;DHT22;4394;51.208;8.904;2023-02-18T07:04:33;10.10;99.90
8715;DHT22;4394;51.208;8.904;2023-02-18T07:07:21;10.10;99.90
8715;DHT22;4394;51.208;8.904;2023-02-18T07:10:10;10.10;99.90
8715;DHT22;4394;51.208;8.904;2023-02-18T07:12:58;10.10;99.90
8715;DHT22;4394;51.208;8.904;2023-02-18T07:15:47;10.10;99.90
8715;DHT22;4394;51.208;8.904;2023-02-18T07:18:35;10.10;99.90
8715;DHT22;4394;51.208;8.904;2023-02-18T07:21:23;10.10;99.90
8715;DHT22;4394;51.208;8.904;2023-02-18T07:24:11;10.20;99.90
8715;DHT22;4394;51.208;8.904;2023-02-18T07:26:59;10.20;99.90
8715;DHT22;4394;51.208;8.904;2023-02-18T07:29:48;10.20;99.90
8715;DHT22;4394;51.208;8.904;2023-02-18T07:32:37;10.20;99.90
8715;DHT22;4394;51.208;8.904;2023-02-18T07:35:25;10.20;99.90
8715;DHT22;4394;51.208;8.904;2023-02-18T07:38:13;10.10;99.90
8715;DHT22;4394;51.208;8.904;2023-02-18T07:41:01;10.10;99.90
8715;DHT22;4394;51.208;8.904;2023-02-18T07:43:49;10.10;99.90
8715;DHT22;4394;51.208;8.904;2023-02-18T07:46:38;10.20;99.90
8715;DHT22;4394;51.208;8.904;2023-02-18T07:49:28;10.20;99.90
8715;DHT22;4394;51.208;8.904;2023-02-18T07:52:16;10.20;99.90
8715;DHT22;4394;51.208;8.904;2023-02-18T07:55:05;10.30;99.90
8715;DHT22;4394;51.208;8.904;2023-02-18T07:57:53;10.20;99.90
8715;DHT22;4394;51.208;8.904;2023-02-18T08:00:47;10.20;99.90
8715;DHT22;4394;51.208;8.904;2023-02-18T08:03:36;10.20;99.90
8715;DHT22;4394;51.208;8.904;2023-02-18T08:06:29;10.30;99.90
8715;DHT22;4394;51.208;8.904;2023-02-18T08:09:18;10.30;99.90
8715;DHT22;4394;51.208;8.904;2023-02-18T08:12:07;10.30;99.90
8715;DHT22;4394;51.208;8.904;2023-02-18T08:14:55;10.30;99.90
8715;DHT22;4394;51.208;8.904;2023-02-18T08:17:43;10.30;99.90
8715;DHT22;4394;51.208;8.904;2023-02-18T08:20:31;10.30;99.90
8715;DHT22;4394;51.208;8.904;2023-02-18T08:23:23;10.30;99.90
8715;DHT22;4394;51.208;8.904;2023-02-18T08:26:12;10.30;99.90
8715;DHT22;4394;51.208;8.904;2023-02-18T08:29:00;10.40;99.90
8715;DHT22;4394;51.208;8.904;2023-02-18T08:31:48;10.30;99.90
8715;DHT22;4394;51.208;8.904;2023-02-18T08:34:38;10.40;99.90
8715;DHT22;4394;51.208;8.904;2023-02-18T08:37:26;10.40;99.90
8715;DHT22;4394;51.208;8.904;2023-02-18T08:40:15;10.40;99.90
8715;DHT22;4394;51.208;8.904;2023-02-18T08:43:03;10.40;99.90
8715;DHT22;4394;51.208;8.904;2023-02-18T08:45:51;10.50;99.90
8715;DHT22;4394;51.208;8.904;2023-02-18T08:48:40;10.50;99.90
8715;DHT22;4394;51.208;8.904;2023-02-18T08:51:28;10.40;99.90
8715;DHT22;4394;51.208;8.904;2023-02-18T08:54:17;10.40;99.90
8715;DHT22;4394;51.208;8.904;2023-02-18T08:57:07;10.40;99.90
8715;DHT22;4394;51.208;8.904;2023-02-18T08:59:55;10.40;99.90
8715;DHT22;4394;51.208;8.904;2023-02-18T09:02:43;10.30;99.90
8715;DHT22;4394;51.208;8.904;2023-02-18T09:05:33;10.40;99.90
8715;DHT22;4394;51.208;8.904;2023-02-18T09:08:21;10.40;99.90
8715;DHT22;4394;51.208;8.904;2023-02-18T09:11:10;10.40;99.90
8715;DHT22;4394;51.208;8.904;2023-02-18T09:13:59;10.30;99.90
8715;DHT22;4394;51.208;8.904;2023-02-18T09:16:48;10.30;99.90
8715;DHT22;4394;51.208;8.904;2023-02-18T09:19:36;10.30;99.90
8715;DHT22;4394;51.208;8.904;2023-02-18T09:22:25;10.30;99.90
8715;DHT22;4394;51.208;8.904;2023-02-18T09:25:13;10.30;99.90
8715;DHT22;4394;51.208;8.904;2023-02-18T09:28:01;10.40;99.90
8715;DHT22;4394;51.208;8.904;2023-02-18T09:30:50;10.40;99.90
8715;DHT22;4394;51.208;8.904;2023-02-18T09:33:41;10.40;99.90
8715;DHT22;4394;51.208;8.904;2023-02-18T09:36:32;10.40;99.90
8715;DHT22;4394;51.208;8.904;2023-02-18T09:39:21;10.30;99.90
8715;DHT22;4394;51.208;8.904;2023-02-18T09:42:13;10.20;99.90
8715;DHT22;4394;51.208;8.904;2023-02-18T09:45:04;10.20;99.90
8715;DHT22;4394;51.208;8.904;2023-02-18T09:47:55;10.20;99.90
8715;DHT22;4394;51.208;8.904;2023-02-18T09:50:46;10.20;99.90
8715;DHT22;4394;51.208;8.904;2023-02-18T09:53:37;10.30;99.90
8715;DHT22;4394;51.208;8.904;2023-02-18T09:56:28;10.40;99.90
8715;DHT22;4394;51.208;8.904;2023-02-18T09:59:19;10.50;99.90
8715;DHT22;4394;51.208;8.904;2023-02-18T10:02:09;10.50;99.90
8715;DHT22;4394;51.208;8.904;2023-02-18T10:05:04;10.50;99.90
8715;DHT22;4394;51.208;8.904;2023-02-18T10:07:54;10.50;99.90
8715;DHT22;4394;51.208;8.904;2023-02-18T10:10:46;10.60;99.90
8715;DHT22;4394;51.208;8.904;2023-02-18T10:13:34;10.50;99.90
8715;DHT22;4394;51.208;8.904;2023-02-18T10:16:23;10.50;99.90
8715;DHT22;4394;51.208;8.904;2023-02-18T10:19:21;10.50;99.90
8715;DHT22;4394;51.208;8.904;2023-02-18T10:22:12;10.40;99.90
8715;DHT22;4394;51.208;8.904;2023-02-18T10:25:03;10.40;99.90
8715;DHT22;4394;51.208;8.904;2023-02-18T10:27:53;10.30;99.90
8715;DHT22;4394;51.208;8.904;2023-02-18T10:30:42;10.20;99.90
8715;DHT22;4394;51.208;8.904;2023-02-18T10:33:33;10.20;99.90
8715;DHT22;4394;51.208;8.904;2023-02-18T10:36:28;10.20;99.90
8715;DHT22;4394;51.208;8.904;2023-02-18T10:39:40;10.20;99.90
8715;DHT22;4394;51.208;8.904;2023-02-18T10:42:39;10.20;99.90
8715;DHT22;4394;51.208;8.904;2023-02-18T10:45:39;10.20;99.90
8715;DHT22;4394;51.208;8.904;2023-02-18T10:48:45;10.10;99.90
8715;DHT22;4394;51.208;8.904;2023-02-18T10:51:43;10.00;99.90
8715;DHT22;4394;51.208;8.904;2023-02-18T10:54:51;9.90;99.90
8715;DHT22;4394;51.208;8.904;2023-02-18T10:57:47;9.90;99.90
8715;DHT22;4394;51.208;8.904;2023-02-18T11:00:38;9.90;99.90
8715;DHT22;4394;51.208;8.904;2023-02-18T11:03:38;9.90;99.90
8715;DHT22;4394;51.208;8.904;2023-02-18T11:06:31;9.90;99.90
8715;DHT22;4394;51.208;8.904;2023-02-18T11:09:27;10.00;99.90
8715;DHT22;4394;51.208;8.904;2023-02-18T11:12:21;10.00;99.90
8715;DHT22;4394;51.208;8.904;2023-02-18T11:15:17;9.90;99.90
8715;DHT22;4394;51.208;8.904;2023-02-18T11:18:12;9.90;99.90
8715;DHT22;4394;51.208;8.904;2023-02-18T11:21:02;9.80;99.90
8715;DHT22;4394;51.208;8.904;2023-02-18T11:23:52;9.70;99.90
8715;DHT22;4394;51.208;8.904;2023-02-18T11:26:41;9.70;99.90
8715;DHT22;4394;51.208;8.904;2023-02-18T11:29:31;9.70;99.90
8715;DHT22;4394;51.208;8.904;2023-02-18T11:32:20;9.70;99.90
8715;DHT22;4394;51.208;8.904;2023-02-18T11:35:16;9.70;99.90
8715;DHT22;4394;51.208;8.904;2023-02-18T11:38:22;9.70;99.90
8715;DHT22;4394;51.208;8.904;2023-02-18T11:41:13;9.70;99.90
8715;DHT22;4394;51.208;8.904;2023-02-18T11:44:04;9.70;99.90
8715;DHT22;4394;51.208;8.904;2023-02-18T11:46:59;9.70;99.90
8715;DHT22;4394;51.208;8.904;2023-02-18T11:50:00;9.80;99.90
8715;DHT22;4394;51.208;8.904;2023-02-18T11:52:49;9.80;99.90
8715;DHT22;4394;51.208;8.904;2023-02-18T11:55:53;9.80;99.90
8715;DHT22;4394;51.208;8.904;2023-02-18T11:58:43;9.80;99.90
8715;DHT22;4394;51.208;8.904;2023-02-18T12:01:42;9.80;99.90
8715;DHT22;4394;51.208;8.904;2023-02-18T12:04:39;9.90;99.90
8715;DHT22;4394;51.208;8.904;2023-02-18T12:07:30;9.90;99.90
8715;DHT22;4394;51.208;8.904;2023-02-18T12:10:25;9.90;99.90
8715;DHT22;4394;51.208;8.904;2023-02-18T12:13:22;9.80;99.90
8715;DHT22;4394;51.208;8.904;2023-02-18T12:16:19;9.80;99.90
8715;DHT22;4394;51.208;8.904;2023-02-18T12:19:22;9.80;99.90
8715;DHT22;4394;51.208;8.904;2023-02-18T12:22:18;9.90;99.90
8715;DHT22;4394;51.208;8.904;2023-02-18T12:25:24;9.80;99.90
8715;DHT22;4394;51.208;8.904;2023-02-18T12:28:25;9.90;99.90
8715;DHT22;4394;51.208;8.904;2023-02-18T12:31:50;9.80;99.90
8715;DHT22;4394;51.208;8.904;2023-02-18T12:34:54;9.80;99.90
8715;DHT22;4394;51.208;8.904;2023-02-18T12:38:18;9.80;99.90
8715;DHT22;4394;51.208;8.904;2023-02-18T12:41:23;9.70;99.90
8715;DHT22;4394;51.208;8.904;2023-02-18T12:44:29;9.70;99.90
8715;DHT22;4394;51.208;8.904;2023-02-18T12:47:40;9.80;99.90
8715;DHT22;4394;51.208;8.904;2023-02-18T12:50:46;9.90;99.90
8715;DHT22;4394;51.208;8.904;2023-02-18T12:53:54;10.00;99.90
8715;DHT22;4394;51.208;8.904;2023-02-18T12:57:04;10.00;99.90
8715;DHT22;4394;51.208;8.904;2023-02-18T13:03:45;10.10;99.90
8715;DHT22;4394;51.208;8.904;2023-02-18T13:10:16;10.10;99.90
8715;DHT22;4394;51.208;8.904;2023-02-18T13:13:10;10.00;99.90
8715;DHT22;4394;51.208;8.904;2023-02-18T13:16:02;10.00;99.90
8715;DHT22;4394;51.208;8.904;2023-02-18T13:18:59;10.00;99.90
8715;DHT22;4394;51.208;8.904;2023-02-18T13:21:51;10.00;99.90
8715;DHT22;4394;51.208;8.904;2023-02-18T13:24:42;10.00;99.90
8715;DHT22;4394;51.208;8.904;2023-02-18T13:27:36;10.00;99.90
8715;DHT22;4394;51.208;8.904;2023-02-18T13:30:30;9.90;99.90
8715;DHT22;4394;51.208;8.904;2023-02-18T13:33:26;10.00;99.90
8715;DHT22;4394;51.208;8.904;2023-02-18T13:36:27;10.00;99.90
8715;DHT22;4394;51.208;8.904;2023-02-18T13:39:21;10.00;99.90
8715;DHT22;4394;51.208;8.904;2023-02-18T13:42:22;10.00;99.90
8715;DHT22;4394;51.208;8.904;2023-02-18T13:45:30;10.00;99.90
8715;DHT22;4394;51.208;8.904;2023-02-18T13:48:25;10.00;99.90
8715;DHT22;4394;51.208;8.904;2023-02-18T13:51:15;10.10;99.90
8715;DHT22;4394;51.208;8.904;2023-02-18T13:54:13;10.00;99.90
8715;DHT22;4394;51.208;8.904;2023-02-18T13:57:05;10.00;99.90
8715;DHT22;4394;51.208;8.904;2023-02-18T13:59:56;10.00;99.90
8715;DHT22;4394;51.208;8.904;2023-02-18T14:02:57;10.00;99.90
8715;DHT22;4394;51.208;8.904;2023-02-18T14:05:45;10.10;99.90
8715;DHT22;4394;51.208;8.904;2023-02-18T14:08:35;10.00;99.90
8715;DHT22;4394;51.208;8.904;2023-02-18T14:11:38;10.10;99.90
8715;DHT22;4394;51.208;8.904;2023-02-18T14:14:48;10.10;99.90
8715;DHT22;4394;51.208;8.904;2023-02-18T14:17:42;10.20;99.90
8715;DHT22;4394;51.208;8.904;2023-02-18T14:20:46;10.20;99.90
8715;DHT22;4394;51.208;8.904;2023-02-18T14:23:54;10.20;99.90
8715;DHT22;4394;51.208;8.904;2023-02-18T14:26:45;10.20;99.90
8715;DHT22;4394;51.208;8.904;2023-02-18T14:29:33;10.20;99.90
8715;DHT22;4394;51.208;8.904;2023-02-18T14:32:21;10.20;99.90
8715;DHT22;4394;51.208;8.904;2023-02-18T14:35:22;10.30;99.90
8715;DHT22;4394;51.208;8.904;2023-02-18T14:38:26;10.30;99.90
8715;DHT22;4394;51.208;8.904;2023-02-18T14:41:29;10.30;99.90
8715;DHT22;4394;51.208;8.904;2023-02-18T14:44:35;10.30;99.90
8715;DHT22;4394;51.208;8.904;2023-02-18T14:47:31;10.30;99.90
8715;DHT22;4394;51.208;8.904;2023-02-18T14:50:21;10.30;99.90
8715;DHT22;4394;51.208;8.904;2023-02-18T14:53:12;10.30;99.90
8715;DHT22;4394;51.208;8.904;2023-02-18T14:56:08;10.30;99.90
8715;DHT22;4394;51.208;8.904;2023-02-18T14:58:59;10.40;99.90
8715;DHT22;4394;51.208;8.904;2023-02-18T15:01:52;10.40;99.90
8715;DHT22;4394;51.208;8.904;2023-02-18T15:04:40;10.40;99.90
8715;DHT22;4394;51.208;8.904;2023-02-18T15:07:28;10.30;99.90
8715;DHT22;4394;51.208;8.904;2023-02-18T15:10:19;10.30;99.90
8715;DHT22;4394;51.208;8.904;2023-02-18T15:13:13;10.30;99.90
8715;DHT22;4394;51.208;8.904;2023-02-18T15:16:06;10.40;99.90
8715;DHT22;4394;51.208;8.904;2023-02-18T15:18:57;10.40;99.90
8715;DHT22;4394;51.208;8.904;2023-02-18T15:21:48;10.30;99.90
8715;DHT22;4394;51.208;8.904;2023-02-18T15:24:37;10.30;99.90
8715;DHT22;4394;51.208;8.904;2023-02-18T15:27:30;10.30;99.90
8715;DHT22;4394;51.208;8.904;2023-02-18T15:30:25;10.30;99.90
8715;DHT22;4394;51.208;8.904;2023-02-18T15:33:17;10.30;99.90
8715;DHT22;4394;51.208;8.904;2023-02-18T15:36:12;10.20;99.90
8715;DHT22;4394;51.208;8.904;2023-02-18T15:39:00;10.20;99.90
8715;DHT22;4394;51.208;8.904;2023-02-18T15:41:52;10.20;99.90
8715;DHT22;4394;51.208;8.904;2023-02-18T15:44:45;10.30;99.90
8715;DHT22;4394;51.208;8.904;2023-02-18T15:47:40;10.30;99.90
8715;DHT22;4394;51.208;8.904;2023-02-18T15:50:36;10.30;99.90
8715;DHT22;4394;51.208;8.904;2023-02-18T15:53:26;10.30;99.90
8715;DHT22;4394;51.208;8.904;2023-02-18T15:56:19;10.30;99.90
8715;DHT22;4394;51.208;8.904;2023-02-18T15:59:09;10.40;99.90
8715;DHT22;4394;51.208;8.904;2023-02-18T16:02:13;10.30;99.90
8715;DHT22;4394;51.208;8.904;2023-02-18T16:05:12;10.40;99.90
8715;DHT22;4394;51.208;8.904;2023-02-18T16:08:05;10.40;99.90
8715;DHT22;4394;51.208;8.904;2023-02-18T16:10:56;10.40;99.90
8715;DHT22;4394;51.208;8.904;2023-02-18T16:13:48;10.40;99.90
8715;DHT22;4394;51.208;8.904;2023-02-18T16:16:36;10.30;99.90
8715;DHT22;4394;51.208;8.904;2023-02-18T16:19:26;10.30;99.90
8715;DHT22;4394;51.208;8.904;2023-02-18T16:22:34;10.30;99.90
8715;DHT22;4394;51.208;8.904;2023-02-18T16:25:25;10.30;99.90
8715;DHT22;4394;51.208;8.904;2023-02-18T16:28:15;10.20;99.90
8715;DHT22;4394;51.208;8.904;2023-02-18T16:31:05;10.20;99.90
8715;DHT22;4394;51.208;8.904;2023-02-18T16:33:52;10.10;99.90
8715;DHT22;4394;51.208;8.904;2023-02-18T16:36:40;10.20;99.90
8715;DHT22;4394;51.208;8.904;2023-02-18T16:39:50;10.20;99.90
8715;DHT22;4394;51.208;8.904;2023-02-18T16:42:40;10.10;99.90
8715;DHT22;4394;51.208;8.904;2023-02-18T16:45:33;10.10;99.90
8715;DHT22;4394;51.208;8.904;2023-02-18T16:48:25;10.10;99.90
8715;DHT22;4394;51.208;8.904;2023-02-18T16:51:16;10.00;99.90
8715;DHT22;4394;51.208;8.904;2023-02-18T16:54:05;10.00;99.90
8715;DHT22;4394;51.208;8.904;2023-02-18T16:56:54;10.10;99.90
8715;DHT22;4394;51.208;8.904;2023-02-18T16:59:42;10.00;99.90
8715;DHT22;4394;51.208;8.904;2023-02-18T17:02:30;10.00;99.90
8715;DHT22;4394;51.208;8.904;2023-02-18T17:05:20;10.10;99.90
8715;DHT22;4394;51.208;8.904;2023-02-18T17:08:18;10.10;99.90
8715;DHT22;4394;51.208;8.904;2023-02-18T17:11:14;10.10;99.90
8715;DHT22;4394;51.208;8.904;2023-02-18T17:14:03;10.00;99.90
8715;DHT22;4394;51.208;8.904;2023-02-18T17:16:52;10.00;99.90
8715;DHT22;4394;51.208;8.904;2023-02-18T17:19:40;9.90;99.90
8715;DHT22;4394;51.208;8.904;2023-02-18T17:22:28;9.80;99.90
8715;DHT22;4394;51.208;8.904;2023-02-18T17:25:20;9.80;99.90
8715;DHT22;4394;51.208;8.904;2023-02-18T17:28:09;9.80;99.90
8715;DHT22;4394;51.208;8.904;2023-02-18T17:30:58;9.80;99.90
8715;DHT22;4394;51.208;8.904;2023-02-18T17:33:46;9.80;99.90
8715;DHT22;4394;51.208;8.904;2023-02-18T17:36:34;9.80;99.90
8715;DHT22;4394;51.208;8.904;2023-02-18T17:39:22;9.80;99.90
8715;DHT22;4394;51.208;8.904;2023-02-18T17:42:10;9.80;99.90
8715;DHT22;4394;51.208;8.904;2023-02-18T17:45:00;9.80;99.90
8715;DHT22;4394;51.208;8.904;2023-02-18T17:47:52;9.80;99.90
8715;DHT22;4394;51.208;8.904;2023-02-18T17:50:40;9.80;99.90
8715;DHT22;4394;51.208;8.904;2023-02-18T17:53:28;9.80;99.90
8715;DHT22;4394;51.208;8.904;2023-02-18T17:56:16;9.80;99.90
8715;DHT22;4394;51.208;8.904;2023-02-18T17:59:04;9.70;99.90
8715;DHT22;4394;51.208;8.904;2023-02-18T18:01:52;9.70;99.90
8715;DHT22;4394;51.208;8.904;2023-02-18T18:04:41;9.70;99.90
8715;DHT22;4394;51.208;8.904;2023-02-18T18:07:29;9.70;99.90
8715;DHT22;4394;51.208;8.904;2023-02-18T18:10:18;9.70;99.90
8715;DHT22;4394;51.208;8.904;2023-02-18T18:13:13;9.70;99.90
8715;DHT22;4394;51.208;8.904;2023-02-18T18:16:02;9.70;99.90
8715;DHT22;4394;51.208;8.904;2023-02-18T18:18:50;9.60;99.90
8715;DHT22;4394;51.208;8.904;2023-02-18T18:21:39;9.60;99.90
8715;DHT22;4394;51.208;8.904;2023-02-18T18:24:27;9.70;99.90
8715;DHT22;4394;51.208;8.904;2023-02-18T18:27:15;9.70;99.90
8715;DHT22;4394;51.208;8.904;2023-02-18T18:30:04;9.60;99.90
8715;DHT22;4394;51.208;8.904;2023-02-18T18:32:52;9.60;99.90
8715;DHT22;4394;51.208;8.904;2023-02-18T18:35:41;9.60;99.90
8715;DHT22;4394;51.208;8.904;2023-02-18T18:38:30;9.60;99.90
8715;DHT22;4394;51.208;8.904;2023-02-18T18:41:20;9.70;99.90
8715;DHT22;4394;51.208;8.904;2023-02-18T18:44:08;9.70;99.90
8715;DHT22;4394;51.208;8.904;2023-02-18T18:46:57;9.70;99.90
8715;DHT22;4394;51.208;8.904;2023-02-18T18:49:45;9.70;99.90
8715;DHT22;4394;51.208;8.904;2023-02-18T18:52:33;9.70;99.90
8715;DHT22;4394;51.208;8.904;2023-02-18T18:55:26;9.70;99.90
8715;DHT22;4394;51.208;8.904;2023-02-18T18:58:14;9.80;99.90